createdAt,value
2023-01-19T00:01:32.928Z,99403.97
2023-01-19T00:04:06.025Z,99404.30
2023-01-19T00:06:39.434Z,99401.65
2023-01-19T00:09:12.633Z,99402.00
2023-01-19T00:11:45.758Z,99404.14
2023-01-19T00:14:19.822Z,99406.14
2023-01-19T00:16:53.046Z,99409.33
2023-01-19T00:19:26.261Z,99399.91
2023-01-19T00:21:59.176Z,99395.87
2023-01-19T00:24:32.817Z,99414.71
2023-01-19T00:27:06.370Z,99410.66
2023-01-19T00:29:39.800Z,99409.40
2023-01-19T00:32:12.382Z,99405.64
2023-01-19T00:34:50.229Z,99408.63
2023-01-19T00:37:23.439Z,99402.29
2023-01-19T00:39:56.487Z,99414.20
2023-01-19T00:42:41.990Z,99411.64
2023-01-19T00:45:19.006Z,99407.34
2023-01-19T00:47:58.815Z,99425.23
2023-01-19T00:50:34.199Z,99423.63
2023-01-19T00:53:07.782Z,99422.27
2023-01-19T00:55:41.067Z,99419.22
2023-01-19T00:58:14.425Z,99420.93
2023-01-19T01:00:47.553Z,99421.34
2023-01-19T01:03:20.731Z,99420.70
2023-01-19T01:05:54.113Z,99422.95
2023-01-19T01:08:27.790Z,99430.66
2023-01-19T01:11:01.075Z,99418.27
2023-01-19T01:13:36.191Z,99431.74
2023-01-19T01:16:10.326Z,99432.03
2023-01-19T01:18:43.897Z,99408.80
2023-01-19T01:21:17.380Z,99420.39
2023-01-19T01:23:51.258Z,99427.96
2023-01-19T01:26:27.014Z,99426.30
2023-01-19T01:29:00.621Z,99423.70
2023-01-19T01:31:33.904Z,99428.41
2023-01-19T01:34:07.828Z,99430.31
2023-01-19T01:36:41.164Z,99430.90
2023-01-19T01:39:15.110Z,99430.01
2023-01-19T01:41:48.655Z,99424.46
2023-01-19T01:44:55.269Z,99418.78
2023-01-19T01:47:43.554Z,99410.02
2023-01-19T01:50:25.708Z,99399.34
2023-01-19T01:53:17.771Z,99402.78
2023-01-19T01:55:50.956Z,99388.41
2023-01-19T01:58:25.031Z,99379.90
2023-01-19T02:01:17.312Z,99374.00
2023-01-19T02:03:51.104Z,99370.80
2023-01-19T02:06:24.487Z,99374.77
2023-01-19T02:09:28.941Z,99382.36
2023-01-19T02:12:21.530Z,99387.14
2023-01-19T02:14:55.972Z,99381.98
2023-01-19T02:17:29.524Z,99374.34
2023-01-19T02:20:02.672Z,99370.19
2023-01-19T02:22:43.411Z,99371.16
2023-01-19T02:25:16.896Z,99371.23
2023-01-19T02:27:51.037Z,99362.14
2023-01-19T02:30:24.656Z,99363.52
2023-01-19T02:32:58.061Z,99360.48
2023-01-19T02:35:33.247Z,99375.09
2023-01-19T02:38:08.401Z,99368.36
2023-01-19T02:40:44.631Z,99376.71
2023-01-19T02:43:20.393Z,99365.05
2023-01-19T02:45:53.662Z,99365.97
2023-01-19T02:48:26.758Z,99377.48
2023-01-19T02:51:05.629Z,99376.25
2023-01-19T02:54:04.948Z,99373.89
2023-01-19T02:56:49.062Z,99372.69
2023-01-19T02:59:37.822Z,99367.17
2023-01-19T03:02:28.340Z,99367.98
2023-01-19T03:05:22.757Z,99357.67
2023-01-19T03:08:30.582Z,99352.98
2023-01-19T03:11:13.810Z,99355.15
2023-01-19T03:13:49.190Z,99349.40
2023-01-19T03:16:23.458Z,99339.83
2023-01-19T03:19:04.421Z,99318.50
2023-01-19T03:21:40.848Z,99341.31
2023-01-19T03:24:17.250Z,99337.92
2023-01-19T03:27:00.958Z,99329.17
2023-01-19T03:29:37.222Z,99332.04
2023-01-19T03:32:14.857Z,99327.05
2023-01-19T03:34:51.577Z,99331.13
2023-01-19T03:37:30.447Z,99337.04
2023-01-19T03:40:04.044Z,99325.59
2023-01-19T03:42:39.017Z,99337.16
2023-01-19T03:45:14.557Z,99332.64
2023-01-19T03:47:48.164Z,99332.66
2023-01-19T03:50:31.254Z,99329.66
2023-01-19T03:53:10.578Z,99326.61
2023-01-19T03:55:49.712Z,99325.62
2023-01-19T03:58:23.087Z,99330.13
2023-01-19T04:00:56.571Z,99331.09
2023-01-19T04:03:29.731Z,99327.82
2023-01-19T04:06:03.197Z,99331.87
2023-01-19T04:08:36.676Z,99337.09
2023-01-19T04:11:12.837Z,99342.03
2023-01-19T04:13:45.860Z,99340.56
2023-01-19T04:16:21.109Z,99336.52
2023-01-19T04:18:54.655Z,99322.23
2023-01-19T04:21:27.467Z,99319.11
2023-01-19T04:24:01.460Z,99325.02
2023-01-19T04:26:34.719Z,99337.44
2023-01-19T04:29:07.657Z,99347.58
2023-01-19T04:31:41.078Z,99339.44
2023-01-19T04:34:14.810Z,99348.36
2023-01-19T04:36:51.591Z,99346.34
2023-01-19T04:39:26.079Z,99338.41
2023-01-19T04:41:59.636Z,99347.55
2023-01-19T04:44:33.168Z,99337.11
2023-01-19T04:47:07.338Z,99348.05
2023-01-19T04:49:40.878Z,99339.50
2023-01-19T04:52:14.154Z,99345.70
2023-01-19T04:54:47.231Z,99337.18
2023-01-19T04:57:20.318Z,99346.94
2023-01-19T04:59:54.505Z,99343.17
2023-01-19T05:02:28.452Z,99344.43
2023-01-19T05:05:01.348Z,99339.45
2023-01-19T05:07:35.403Z,99340.59
2023-01-19T05:10:10.111Z,99330.02
2023-01-19T05:12:43.640Z,99331.02
2023-01-19T05:15:16.938Z,99335.92
2023-01-19T05:17:50.609Z,99336.86
2023-01-19T05:20:23.452Z,99338.19
2023-01-19T05:22:56.749Z,99338.88
2023-01-19T05:25:29.598Z,99339.11
2023-01-19T05:28:03.352Z,99333.73
2023-01-19T05:30:36.832Z,99334.20
2023-01-19T05:33:10.277Z,99351.35
2023-01-19T05:35:43.157Z,99350.89
2023-01-19T05:38:20.820Z,99347.52
2023-01-19T05:41:00.546Z,99357.63
2023-01-19T05:43:33.742Z,99374.10
2023-01-19T05:46:07.654Z,99372.05
2023-01-19T05:48:40.781Z,99371.82
2023-01-19T05:51:14.109Z,99373.60
2023-01-19T05:53:48.328Z,99367.88
2023-01-19T05:56:22.305Z,99365.46
2023-01-19T05:58:56.518Z,99363.44
2023-01-19T06:01:30.607Z,99359.31
2023-01-19T06:04:04.400Z,99358.81
2023-01-19T06:06:37.863Z,99360.70
2023-01-19T06:09:11.320Z,99354.12
2023-01-19T06:11:45.450Z,99365.38
2023-01-19T06:14:18.548Z,99367.55
2023-01-19T06:16:52.075Z,99365.83
2023-01-19T06:19:26.286Z,99365.05
2023-01-19T06:21:59.371Z,99363.15
2023-01-19T06:24:33.487Z,99354.63
2023-01-19T06:27:07.181Z,99367.42
2023-01-19T06:29:40.259Z,99367.83
2023-01-19T06:32:13.801Z,99371.39
2023-01-19T06:34:48.079Z,99370.52
2023-01-19T06:37:20.946Z,99368.06
2023-01-19T06:39:53.627Z,99361.06
2023-01-19T06:42:26.263Z,99375.80
2023-01-19T06:45:00.175Z,99368.02
2023-01-19T06:47:34.878Z,99378.66
2023-01-19T06:50:09.317Z,99381.16
2023-01-19T06:52:43.095Z,99353.16
2023-01-19T06:55:16.992Z,99389.45
2023-01-19T06:57:58.343Z,99396.48
2023-01-19T07:00:32.303Z,99404.95
2023-01-19T07:03:08.208Z,99407.66
2023-01-19T07:05:41.875Z,99408.09
2023-01-19T07:08:16.156Z,99384.65
2023-01-19T07:11:25.619Z,99399.56
2023-01-19T07:13:45.396Z,99416.94
2023-01-19T07:16:19.553Z,99409.35
2023-01-19T07:18:53.416Z,99397.14
2023-01-19T07:21:28.925Z,99400.27
2023-01-19T07:24:04.090Z,99408.55
2023-01-19T07:26:37.691Z,99390.19
2023-01-19T07:29:11.644Z,99396.25
2023-01-19T07:31:44.741Z,99394.28
2023-01-19T07:34:18.681Z,99390.10
2023-01-19T07:36:52.170Z,99388.32
2023-01-19T07:39:26.110Z,99390.33
2023-01-19T07:41:59.873Z,99387.67
2023-01-19T07:44:33.828Z,99384.17
2023-01-19T07:47:12.301Z,99385.45
2023-01-19T07:49:45.839Z,99378.59
2023-01-19T07:52:19.615Z,99390.00
2023-01-19T07:54:52.622Z,99392.67
2023-01-19T07:57:25.865Z,99387.10
2023-01-19T07:59:59.802Z,99385.73
2023-01-19T08:02:34.585Z,99387.69
2023-01-19T08:05:08.394Z,99386.05
2023-01-19T08:07:41.955Z,99383.98
2023-01-19T08:10:16.250Z,99378.23
2023-01-19T08:12:49.637Z,99382.95
2023-01-19T08:15:24.618Z,99393.55
2023-01-19T08:18:10.531Z,99398.24
2023-01-19T08:20:44.034Z,99398.45
2023-01-19T08:23:20.051Z,99392.20
2023-01-19T08:25:54.130Z,99370.89
2023-01-19T08:28:28.044Z,99369.88
2023-01-19T08:31:18.193Z,99381.02
2023-01-19T08:33:54.830Z,99386.55
2023-01-19T08:36:29.900Z,99390.94
2023-01-19T08:39:03.173Z,99393.97
2023-01-19T08:41:36.098Z,99379.13
2023-01-19T08:44:09.867Z,99373.70
2023-01-19T08:46:43.956Z,99377.34
2023-01-19T08:49:17.492Z,99376.34
2023-01-19T08:51:51.168Z,99365.61
2023-01-19T08:54:24.999Z,99357.07
2023-01-19T08:56:58.916Z,99362.31
2023-01-19T08:59:32.002Z,99353.54
2023-01-19T09:02:05.220Z,99348.73
2023-01-19T09:04:38.720Z,99368.02
2023-01-19T09:07:12.280Z,99383.40
2023-01-19T09:09:46.006Z,99390.88
2023-01-19T09:12:20.584Z,99391.48
2023-01-19T09:14:53.686Z,99385.04
2023-01-19T09:17:27.822Z,99375.23
2023-01-19T09:20:01.005Z,99365.69
2023-01-19T09:22:34.383Z,99370.32
2023-01-19T09:25:08.002Z,99373.46
2023-01-19T09:27:41.649Z,99383.52
2023-01-19T09:30:15.357Z,99383.82
2023-01-19T09:32:48.929Z,99380.15
2023-01-19T09:35:22.445Z,99373.50
2023-01-19T09:37:57.035Z,99370.70
2023-01-19T09:40:31.203Z,99368.92
2023-01-19T09:43:28.121Z,99374.48
2023-01-19T09:46:46.851Z,99373.90
2023-01-19T09:49:33.731Z,99373.59
2023-01-19T09:52:07.866Z,99368.73
2023-01-19T09:54:50.356Z,99366.10
2023-01-19T09:57:24.791Z,99362.83
2023-01-19T10:00:00.290Z,99367.96
2023-01-19T10:03:02.519Z,99368.75
2023-01-19T10:05:51.670Z,99361.48
2023-01-19T10:08:38.033Z,99351.10
2023-01-19T10:11:51.941Z,99345.22
2023-01-19T10:15:04.705Z,99346.04
2023-01-19T10:17:52.001Z,99327.95
2023-01-19T10:20:34.014Z,99339.95
2023-01-19T10:23:21.363Z,99333.14
2023-01-19T10:25:55.227Z,99331.48
2023-01-19T10:28:30.239Z,99338.46
2023-01-19T10:31:05.629Z,99329.98
2023-01-19T10:33:40.409Z,99327.67
2023-01-19T10:36:28.125Z,99327.34
2023-01-19T10:39:01.296Z,99319.80
2023-01-19T10:41:47.783Z,99312.90
2023-01-19T10:44:52.974Z,99318.34
2023-01-19T10:47:33.821Z,99307.39
2023-01-19T10:50:31.124Z,99298.02
2023-01-19T10:53:08.404Z,99280.16
2023-01-19T10:55:43.148Z,99289.20
2023-01-19T10:58:32.768Z,99290.48
2023-01-19T11:01:21.139Z,99289.83
2023-01-19T11:03:57.586Z,99283.52
2023-01-19T11:06:32.052Z,99273.84
2023-01-19T11:09:18.009Z,99256.59
2023-01-19T11:11:56.279Z,99260.58
2023-01-19T11:14:33.034Z,99277.23
2023-01-19T11:17:06.407Z,99264.10
2023-01-19T11:19:39.675Z,99278.83
2023-01-19T11:22:27.898Z,99278.52
2023-01-19T11:25:06.860Z,99274.13
2023-01-19T11:27:40.763Z,99275.58
2023-01-19T11:30:20.581Z,99286.15
2023-01-19T11:32:56.804Z,99273.83
2023-01-19T11:35:41.193Z,99278.14
2023-01-19T11:38:20.986Z,99277.23
2023-01-19T11:41:01.062Z,99287.35
2023-01-19T11:43:48.219Z,99271.61
2023-01-19T11:46:28.941Z,99275.88
2023-01-19T11:49:15.479Z,99271.98
2023-01-19T11:52:15.512Z,99269.25
2023-01-19T11:55:15.066Z,99273.30
2023-01-19T11:57:54.473Z,99278.77
2023-01-19T12:00:36.127Z,99278.95
2023-01-19T12:03:15.624Z,99277.27
2023-01-19T12:05:59.446Z,99277.48
2023-01-19T12:08:46.347Z,99276.58
2023-01-19T12:11:32.365Z,99275.66
2023-01-19T12:14:07.035Z,99271.35
2023-01-19T12:16:42.557Z,99278.34
2023-01-19T12:19:32.469Z,99281.36
2023-01-19T12:22:07.455Z,99283.70
2023-01-19T12:24:55.384Z,99281.67
2023-01-19T12:27:49.015Z,99289.56
2023-01-19T12:30:31.527Z,99282.96
2023-01-19T12:33:25.634Z,99280.54
2023-01-19T12:36:02.898Z,99283.52
2023-01-19T12:38:53.447Z,99288.80
2023-01-19T12:41:35.612Z,99279.33
2023-01-19T12:44:16.798Z,99280.09
2023-01-19T12:47:08.691Z,99293.00
2023-01-19T12:49:41.602Z,99287.29
2023-01-19T12:52:17.180Z,99288.88
2023-01-19T12:55:38.679Z,99296.33
2023-01-19T12:58:19.187Z,99290.60
2023-01-19T13:01:12.457Z,99278.33
2023-01-19T13:04:10.819Z,99272.04
2023-01-19T13:06:52.906Z,99298.00
2023-01-19T13:09:39.988Z,99300.73
2023-01-19T13:12:23.361Z,99304.73
2023-01-19T13:15:29.615Z,99289.67
2023-01-19T13:18:05.027Z,99304.24
2023-01-19T13:21:05.378Z,99303.73
2023-01-19T13:23:56.247Z,99292.13
2023-01-19T13:26:39.448Z,99290.81
2023-01-19T13:29:18.215Z,99297.31
2023-01-19T13:31:56.230Z,99289.49
2023-01-19T13:34:32.094Z,99283.90
2023-01-19T13:37:06.789Z,99282.52
2023-01-19T13:39:45.420Z,99282.17
2023-01-19T13:42:35.941Z,99293.91
2023-01-19T13:45:29.104Z,99296.21
2023-01-19T13:48:05.269Z,99286.81
2023-01-19T13:50:40.557Z,99285.27
2023-01-19T13:53:25.110Z,99280.77
2023-01-19T13:56:21.247Z,99284.79
2023-01-19T13:59:19.361Z,99280.02
2023-01-19T14:01:54.917Z,99285.88
2023-01-19T14:04:30.831Z,99274.25
2023-01-19T14:07:28.228Z,99261.90
2023-01-19T14:10:14.637Z,99267.55
2023-01-19T14:12:59.084Z,99279.46
2023-01-19T14:15:36.603Z,99279.18
2023-01-19T14:18:30.643Z,99276.41
2023-01-19T14:21:09.686Z,99282.41
2023-01-19T14:24:12.471Z,99287.30
2023-01-19T14:27:12.655Z,99293.72
2023-01-19T14:29:48.007Z,99292.23
2023-01-19T14:32:23.891Z,99281.02
2023-01-19T14:35:08.288Z,99297.26
2023-01-19T14:37:50.893Z,99284.65
2023-01-19T14:40:27.700Z,99289.93
2023-01-19T14:43:04.712Z,99301.38
2023-01-19T14:45:44.831Z,99309.80
2023-01-19T14:48:22.435Z,99321.66
2023-01-19T14:51:05.213Z,99323.52
2023-01-19T14:53:41.742Z,99330.58
2023-01-19T14:56:14.830Z,99333.34
2023-01-19T14:58:48.242Z,99338.70
2023-01-19T15:01:22.016Z,99336.55
2023-01-19T15:03:57.329Z,99321.30
2023-01-19T15:06:31.051Z,99316.33
2023-01-19T15:09:04.985Z,99323.19
2023-01-19T15:11:38.618Z,99325.63
2023-01-19T15:14:19.500Z,99320.73
2023-01-19T15:16:53.882Z,99317.76
2023-01-19T15:19:26.857Z,99314.79
2023-01-19T15:22:00.530Z,99308.75
2023-01-19T15:24:34.345Z,99302.27
2023-01-19T15:27:07.585Z,99292.77
2023-01-19T15:29:44.164Z,99295.05
2023-01-19T15:32:18.217Z,99286.14
2023-01-19T15:34:53.144Z,99279.96
2023-01-19T15:37:26.980Z,99283.51
2023-01-19T15:40:00.214Z,99296.80
2023-01-19T15:42:33.969Z,99289.21
2023-01-19T15:45:28.647Z,99291.07
2023-01-19T15:48:03.192Z,99299.05
2023-01-19T15:50:40.712Z,99308.73
2023-01-19T15:53:18.362Z,99309.67
2023-01-19T15:55:57.341Z,99307.61
2023-01-19T15:58:30.488Z,99292.54
2023-01-19T16:01:03.986Z,99302.38
2023-01-19T16:03:36.824Z,99302.21
2023-01-19T16:06:10.818Z,99295.55
2023-01-19T16:08:44.446Z,99310.28
2023-01-19T16:11:19.085Z,99293.15
2023-01-19T16:13:52.677Z,99313.98
2023-01-19T16:16:28.725Z,99311.53
2023-01-19T16:19:02.367Z,99303.02
2023-01-19T16:21:36.276Z,99302.24
2023-01-19T16:24:09.694Z,99305.11
2023-01-19T16:26:42.613Z,99317.98
2023-01-19T16:29:15.954Z,99319.17
2023-01-19T16:31:49.589Z,99319.17
2023-01-19T16:34:24.784Z,99308.38
2023-01-19T16:36:58.486Z,99313.68
2023-01-19T16:39:32.226Z,99326.27
2023-01-19T16:42:06.253Z,99319.21
2023-01-19T16:44:39.891Z,99328.05
2023-01-19T16:47:13.289Z,99331.24
2023-01-19T16:49:46.373Z,99338.15
2023-01-19T16:52:20.199Z,99334.24
2023-01-19T16:54:55.197Z,99326.61
2023-01-19T16:57:28.823Z,99341.11
2023-01-19T17:00:01.978Z,99345.23
2023-01-19T17:02:35.522Z,99348.50
2023-01-19T17:05:09.192Z,99344.75
2023-01-19T17:07:42.606Z,99349.94
2023-01-19T17:10:15.756Z,99345.05
2023-01-19T17:12:48.584Z,99359.27
2023-01-19T17:15:22.221Z,99363.45
2023-01-19T17:17:55.953Z,99366.40
2023-01-19T17:20:29.263Z,99366.34
2023-01-19T17:23:03.055Z,99369.23
2023-01-19T17:25:36.394Z,99365.30
2023-01-19T17:28:10.274Z,99348.36
2023-01-19T17:30:44.116Z,99341.28
2023-01-19T17:33:17.859Z,99355.51
2023-01-19T17:35:51.696Z,99364.04
2023-01-19T17:38:25.101Z,99360.91
2023-01-19T17:40:58.787Z,99370.11
2023-01-19T17:43:32.157Z,99366.47
2023-01-19T17:46:05.303Z,99369.44
2023-01-19T17:48:38.595Z,99374.38
2023-01-19T17:51:15.527Z,99378.60
2023-01-19T17:53:48.387Z,99380.21
2023-01-19T17:56:23.936Z,99392.77
2023-01-19T17:58:58.308Z,99393.85
2023-01-19T18:01:34.255Z,99401.48
2023-01-19T18:04:07.844Z,99406.08
2023-01-19T18:06:41.968Z,99388.55
2023-01-19T18:09:15.378Z,99390.70
2023-01-19T18:11:48.808Z,99401.10
2023-01-19T18:14:22.016Z,99405.39
2023-01-19T18:16:55.437Z,99409.01
2023-01-19T18:19:29.583Z,99411.98
2023-01-19T18:22:03.191Z,99402.63
2023-01-19T18:24:36.508Z,99414.28
2023-01-19T18:27:09.201Z,99412.95
2023-01-19T18:29:42.467Z,99415.59
2023-01-19T18:32:16.357Z,99415.13
2023-01-19T18:34:52.751Z,99413.33
2023-01-19T18:37:25.678Z,99418.34
2023-01-19T18:40:02.580Z,99418.79
2023-01-19T18:42:37.163Z,99410.23
2023-01-19T18:45:11.166Z,99410.20
2023-01-19T18:47:44.684Z,99420.67
2023-01-19T18:50:19.323Z,99409.05
2023-01-19T18:52:53.670Z,99412.52
2023-01-19T18:55:27.055Z,99427.73
2023-01-19T18:58:00.386Z,99426.60
2023-01-19T19:00:33.903Z,99441.75
2023-01-19T19:03:11.245Z,99447.88
2023-01-19T19:05:44.721Z,99455.48
2023-01-19T19:08:18.321Z,99459.73
2023-01-19T19:10:51.281Z,99457.12
2023-01-19T19:13:24.851Z,99453.48
2023-01-19T19:16:05.964Z,99449.70
2023-01-19T19:18:40.429Z,99451.52
2023-01-19T19:21:14.864Z,99427.34
2023-01-19T19:23:53.683Z,99446.10
2023-01-19T19:26:30.413Z,99456.98
2023-01-19T19:29:04.817Z,99458.55
2023-01-19T19:31:41.160Z,99458.13
2023-01-19T19:34:14.244Z,99462.05
2023-01-19T19:36:47.100Z,99459.26
2023-01-19T19:39:19.997Z,99454.80
2023-01-19T19:41:53.175Z,99462.30
2023-01-19T19:44:26.242Z,99469.38
2023-01-19T19:46:59.408Z,99453.98
2023-01-19T19:49:32.517Z,99464.41
2023-01-19T19:52:05.267Z,99465.48
2023-01-19T19:54:38.399Z,99479.20
2023-01-19T19:57:11.129Z,99480.01
2023-01-19T19:59:44.303Z,99484.84
2023-01-19T20:02:17.209Z,99490.50
2023-01-19T20:04:50.268Z,99489.14
2023-01-19T20:07:22.975Z,99492.70
2023-01-19T20:09:56.235Z,99495.11
2023-01-19T20:12:29.056Z,99501.22
2023-01-19T20:15:02.166Z,99503.94
2023-01-19T20:17:35.631Z,99488.30
2023-01-19T20:20:09.420Z,99486.98
2023-01-19T20:22:42.122Z,99504.67
2023-01-19T20:25:14.792Z,99521.68
2023-01-19T20:27:47.861Z,99516.38
2023-01-19T20:30:21.173Z,99514.17
2023-01-19T20:32:54.860Z,99517.62
2023-01-19T20:35:28.489Z,99522.73
2023-01-19T20:38:01.901Z,99520.64
2023-01-19T20:40:35.673Z,99518.96
2023-01-19T20:43:09.186Z,99525.95
2023-01-19T20:45:42.436Z,99526.41
2023-01-19T20:48:16.121Z,99529.32
2023-01-19T20:50:50.084Z,99534.48
2023-01-19T20:53:22.456Z,99519.96
2023-01-19T20:55:55.100Z,99534.15
2023-01-19T20:58:27.568Z,99547.75
2023-01-19T21:01:00.438Z,99537.85
2023-01-19T21:03:35.442Z,99554.41
2023-01-19T21:06:08.562Z,99553.35
2023-01-19T21:08:41.453Z,99554.89
2023-01-19T21:11:14.421Z,99558.89
2023-01-19T21:13:47.359Z,99565.20
2023-01-19T21:16:20.427Z,99554.92
2023-01-19T21:18:53.370Z,99555.38
2023-01-19T21:21:31.822Z,99560.91
2023-01-19T21:24:07.315Z,99547.31
2023-01-19T21:26:42.040Z,99551.79
2023-01-19T21:29:14.474Z,99550.95
2023-01-19T21:31:47.354Z,99551.96
2023-01-19T21:34:20.579Z,99597.20
2023-01-19T21:36:53.597Z,99642.27
2023-01-19T21:39:26.768Z,99646.79
2023-01-19T21:41:59.974Z,99647.41
2023-01-19T21:44:33.183Z,99653.21
2023-01-19T21:47:12.515Z,99640.48
2023-01-19T21:49:45.852Z,99618.06
2023-01-19T21:52:19.302Z,99620.36
2023-01-19T21:54:52.637Z,99632.03
2023-01-19T21:57:25.778Z,99628.64
2023-01-19T21:59:59.110Z,99649.63
2023-01-19T22:02:38.628Z,99652.46
2023-01-19T22:05:14.262Z,99642.65
2023-01-19T22:07:47.904Z,99642.27
2023-01-19T22:10:21.758Z,99636.95
2023-01-19T22:12:55.746Z,99636.63
2023-01-19T22:15:28.846Z,99644.02
2023-01-19T22:18:02.207Z,99638.39
2023-01-19T22:20:36.863Z,99623.77
2023-01-19T22:23:10.070Z,99628.20
2023-01-19T22:25:43.015Z,99625.09
2023-01-19T22:28:16.204Z,99640.71
2023-01-19T22:30:49.392Z,99637.39
2023-01-19T22:33:22.941Z,99632.78
2023-01-19T22:35:56.243Z,99631.02
2023-01-19T22:38:29.582Z,99613.67
2023-01-19T22:41:03.010Z,99609.10
2023-01-19T22:43:35.852Z,99617.05
2023-01-19T22:46:09.016Z,99612.16
2023-01-19T22:48:42.147Z,99616.61
2023-01-19T22:51:15.554Z,99619.46
2023-01-19T22:53:48.427Z,99614.34
2023-01-19T22:56:26.162Z,99603.95
2023-01-19T22:58:59.595Z,99604.86
2023-01-19T23:01:33.881Z,99611.69
2023-01-19T23:04:10.754Z,99620.17
2023-01-19T23:06:43.897Z,99625.94
2023-01-19T23:10:57.377Z,99626.16
2023-01-19T23:13:30.006Z,99626.58
2023-01-19T23:16:03.029Z,99623.39
2023-01-19T23:18:36.336Z,99618.17
2023-01-19T23:21:17.381Z,99623.33
2023-01-19T23:23:50.223Z,99630.73
2023-01-19T23:26:24.062Z,99627.15
2023-01-19T23:29:08.229Z,99623.60
2023-01-19T23:31:41.883Z,99615.55
2023-01-19T23:34:15.441Z,99610.52
2023-01-19T23:36:48.775Z,99602.55
2023-01-19T23:39:23.687Z,99601.92
2023-01-19T23:41:56.705Z,99604.14
2023-01-19T23:44:29.890Z,99600.45
2023-01-19T23:47:02.794Z,99603.96
2023-01-19T23:49:35.954Z,99599.63
2023-01-19T23:52:08.996Z,99612.18
2023-01-19T23:54:42.409Z,99611.79
2023-01-19T23:57:15.498Z,99613.06
2023-01-19T23:59:48.339Z,99610.07
